Time;durP1;ratioP1;P1;durP2;ratioP2;P2;SDS_P1;SDS_P2;PMS_P1;PMS_P2;Temp;Humidity;BMP_temperature;BMP_pressure;BME280_temperature;BME280_humidity;BME280_pressure;Samples;Min_cycle;Max_cycle;Signal;HPM_P1;HPM_P2
2021/12/07 00:01:02;;;;;;;0.50;0.30;;;0.50;99.90;;;;;;5061898;28;20286;-88
2021/12/07 00:03:29;;;;;;;0.40;0.40;;;0.60;99.90;;;;;;5056441;28;20207;-88
2021/12/07 00:05:56;;;;;;;0.40;0.32;;;0.60;99.90;;;;;;5070205;28;20850;-85
2021/12/07 00:08:28;;;;;;;0.40;0.40;;;0.60;99.90;;;;;;5070672;28;20211;-86
2021/12/07 00:10:55;;;;;;;1.83;1.70;;;0.60;99.90;;;;;;5069868;28;20725;-87
2021/12/07 00:13:24;;;;;;;0.30;0.10;;;0.70;99.90;;;;;;5062495;28;20200;-87
2021/12/07 00:15:51;;;;;;;0.30;0.10;;;0.70;99.90;;;;;;5069015;28;20201;-86
2021/12/07 00:18:18;;;;;;;0.30;0.20;;;0.60;99.90;;;;;;5071712;28;20220;-86
2021/12/07 00:20:45;;;;;;;0.30;0.10;;;0.60;99.90;;;;;;5067438;28;20239;-87
2021/12/07 00:23:12;;;;;;;0.30;0.20;;;0.60;99.90;;;;;;5061218;28;20678;-87
2021/12/07 00:25:40;;;;;;;0.30;0.10;;;0.60;99.90;;;;;;5069904;28;20260;-86
2021/12/07 00:28:07;;;;;;;0.30;0.20;;;0.60;99.90;;;;;;5067117;28;20296;-88
2021/12/07 00:30:36;;;;;;;0.30;0.20;;;0.60;99.90;;;;;;5069991;28;20204;-86
2021/12/07 00:33:17;;;;;;;0.30;0.20;;;0.60;99.90;;;;;;5058128;28;20207;-88
2021/12/07 00:35:44;;;;;;;0.30;0.10;;;0.60;99.90;;;;;;5069772;28;20949;-87
2021/12/07 00:38:15;;;;;;;1.17;1.07;;;0.70;99.90;;;;;;5065723;28;20584;-87
2021/12/07 00:40:45;;;;;;;0.30;0.20;;;0.70;99.90;;;;;;5070039;28;20505;-89
2021/12/07 00:43:12;;;;;;;0.40;0.33;;;0.70;99.90;;;;;;5069035;28;20470;-86
2021/12/07 00:45:43;;;;;;;0.50;0.30;;;0.80;99.90;;;;;;5069428;28;20450;-86
2021/12/07 00:48:10;;;;;;;0.30;0.10;;;0.70;99.90;;;;;;5055607;28;20443;-86
2021/12/07 00:50:39;;;;;;;0.30;0.30;;;0.70;99.90;;;;;;5067292;28;20445;-88
2021/12/07 00:53:07;;;;;;;0.30;0.20;;;0.80;99.90;;;;;;5068190;28;20200;-87
2021/12/07 00:55:37;;;;;;;0.30;0.10;;;0.70;99.90;;;;;;5049480;28;20204;-87
2021/12/07 00:58:16;;;;;;;0.30;0.10;;;0.60;99.90;;;;;;5067560;28;21023;-86
2021/12/07 01:00:43;;;;;;;1.88;0.77;;;0.70;99.90;;;;;;5068587;28;20277;-86
2021/12/07 01:03:10;;;;;;;2.33;0.50;;;0.70;99.90;;;;;;5067345;28;20606;-86
2021/12/07 01:05:39;;;;;;;0.30;0.10;;;0.70;99.90;;;;;;5067004;28;20292;-87
2021/12/07 01:08:17;;;;;;;0.30;0.10;;;0.70;99.90;;;;;;5070849;28;20554;-88
2021/12/07 01:24:41;;;;;;;0.30;0.10;;;0.80;99.90;;;;;;5073030;28;20212;-86
2021/12/07 01:27:10;;;;;;;0.30;0.20;;;0.90;99.90;;;;;;5068915;28;20349;-87
2021/12/07 01:29:41;;;;;;;1.15;1.15;;;0.80;99.90;;;;;;5070181;28;20200;-87
2021/12/07 01:32:18;;;;;;;0.30;0.10;;;0.90;99.90;;;;;;5067885;28;20282;-87
2021/12/07 01:37:40;;;;;;;0.30;0.10;;;0.90;99.90;;;;;;5070035;28;20477;-86
2021/12/07 01:40:32;;;;;;;0.93;0.50;;;0.90;99.90;;;;;;5073023;28;20201;-86
2021/12/07 01:46:08;;;;;;;0.30;0.10;;;0.90;99.90;;;;;;5049953;28;20207;-87
2021/12/07 01:51:40;;;;;;;0.30;0.10;;;0.90;99.90;;;;;;5072713;28;20800;-86
2021/12/07 01:59:37;;;;;;;0.30;0.10;;;0.80;99.90;;;;;;5068425;28;20820;-86
2021/12/07 02:02:08;;;;;;;0.30;0.10;;;0.80;99.90;;;;;;5070804;28;21000;-86
2021/12/07 02:04:35;;;;;;;1.27;1.20;;;0.80;99.90;;;;;;5057983;28;20193;-89
2021/12/07 02:07:03;;;;;;;0.30;0.10;;;0.90;99.90;;;;;;5063952;28;20544;-86
2021/12/07 02:09:29;;;;;;;0.30;0.10;;;0.90;99.90;;;;;;5089835;28;20435;-85
2021/12/07 02:12:00;;;;;;;0.30;0.10;;;1.00;99.90;;;;;;5069590;28;20722;-86
2021/12/07 02:14:27;;;;;;;0.30;0.10;;;0.90;99.90;;;;;;5069674;28;20227;-87
2021/12/07 02:16:57;;;;;;;0.40;0.38;;;0.80;99.90;;;;;;5062766;28;21073;-86
2021/12/07 02:19:26;;;;;;;0.30;0.10;;;0.70;99.90;;;;;;5061041;28;20258;-86
2021/12/07 02:21:57;;;;;;;0.30;0.20;;;0.70;99.90;;;;;;5072330;28;20266;-87
2021/12/07 02:24:24;;;;;;;0.30;0.20;;;0.60;99.90;;;;;;5064358;28;20833;-86
2021/12/07 02:26:52;;;;;;;0.30;0.20;;;0.50;99.90;;;;;;5064174;28;20527;-86
2021/12/07 02:29:20;;;;;;;0.30;0.17;;;0.40;99.90;;;;;;5071945;28;20293;-86
2021/12/07 02:31:48;;;;;;;0.82;0.82;;;0.30;99.90;;;;;;5070720;28;20236;-86
2021/12/07 02:34:15;;;;;;;0.30;0.10;;;0.20;99.90;;;;;;5071667;28;20197;-87
2021/12/07 02:36:43;;;;;;;0.30;0.20;;;0.30;99.90;;;;;;5072178;28;20469;-87
2021/12/07 02:39:12;;;;;;;0.30;0.10;;;0.40;99.90;;;;;;5065302;28;20515;-88
2021/12/07 02:41:41;;;;;;;0.30;0.10;;;0.50;99.90;;;;;;5068585;28;20197;-88
2021/12/07 02:44:08;;;;;;;0.30;0.10;;;0.60;99.90;;;;;;5065686;28;20198;-88
2021/12/07 02:46:37;;;;;;;0.30;0.10;;;0.50;99.90;;;;;;5069193;28;20467;-87
2021/12/07 02:49:04;;;;;;;0.40;0.20;;;0.60;99.90;;;;;;5070680;28;20486;-88
2021/12/07 02:51:31;;;;;;;0.30;0.20;;;0.70;99.90;;;;;;5054265;28;20472;-87
2021/12/07 02:53:59;;;;;;;0.30;0.10;;;0.80;99.90;;;;;;5064545;28;20443;-86
2021/12/07 02:56:27;;;;;;;0.30;0.10;;;0.90;99.90;;;;;;5068455;28;20601;-86
2021/12/07 02:58:59;;;;;;;0.30;0.10;;;0.80;99.90;;;;;;5071043;28;20682;-87
2021/12/07 03:01:31;;;;;;;0.30;0.20;;;0.90;99.90;;;;;;5070542;28;20486;-86
2021/12/07 03:04:02;;;;;;;1.05;1.05;;;0.90;99.90;;;;;;5070717;28;20748;-86
2021/12/07 03:06:48;;;;;;;0.30;0.10;;;0.90;99.90;;;;;;5087314;28;20189;-89
2021/12/07 03:26:03;;;;;;;0.30;0.10;;;0.80;99.90;;;;;;5067963;28;20441;-87
2021/12/07 03:28:34;;;;;;;0.30;0.10;;;0.80;99.90;;;;;;5070002;28;20473;-87
2021/12/07 03:31:01;;;;;;;0.40;0.40;;;0.80;99.90;;;;;;5070003;28;20967;-85
2021/12/07 03:33:28;;;;;;;0.30;0.10;;;0.90;99.90;;;;;;5068219;28;20217;-87
2021/12/07 03:35:55;;;;;;;0.30;0.10;;;0.80;99.90;;;;;;5067815;28;20460;-86
2021/12/07 03:38:22;;;;;;;0.30;0.20;;;0.80;99.90;;;;;;5070667;28;20482;-87
2021/12/07 03:40:49;;;;;;;0.30;0.10;;;0.80;99.90;;;;;;5063791;28;20941;-86
2021/12/07 03:43:17;;;;;;;0.30;0.10;;;0.80;99.90;;;;;;5065177;28;20501;-88
2021/12/07 03:45:45;;;;;;;0.30;0.10;;;0.80;99.90;;;;;;5070788;28;20982;-89
2021/12/07 03:48:13;;;;;;;0.30;0.10;;;0.80;99.90;;;;;;5063327;28;20291;-86
2021/12/07 03:50:40;;;;;;;0.30;0.20;;;0.80;99.90;;;;;;5051949;28;20198;-87
2021/12/07 03:53:08;;;;;;;0.30;0.10;;;0.70;99.90;;;;;;5059145;28;20252;-88
2021/12/07 03:55:36;;;;;;;0.30;0.10;;;0.70;99.90;;;;;;5062753;28;20212;-87
2021/12/07 03:58:03;;;;;;;0.30;0.20;;;0.70;99.90;;;;;;5061985;28;20274;-87
2021/12/07 04:00:34;;;;;;;0.43;0.37;;;0.80;99.90;;;;;;5064343;28;20493;-88
2021/12/07 04:03:07;;;;;;;0.30;0.10;;;0.70;99.90;;;;;;5076798;28;20452;-86
2021/12/07 04:05:36;;;;;;;0.40;0.37;;;0.70;99.90;;;;;;5070510;28;20208;-85
2021/12/07 04:08:04;;;;;;;0.40;0.40;;;0.70;99.90;;;;;;5066749;28;20920;-88
2021/12/07 04:10:31;;;;;;;0.30;0.20;;;0.60;99.90;;;;;;5070270;28;20200;-86
2021/12/07 04:12:58;;;;;;;0.30;0.10;;;0.60;99.90;;;;;;5051328;28;20201;-86
2021/12/07 04:15:25;;;;;;;0.30;0.20;;;0.50;99.90;;;;;;5067821;28;20257;-86
2021/12/07 04:17:52;;;;;;;0.30;0.20;;;0.50;99.90;;;;;;5059232;28;20203;-88
2021/12/07 04:20:21;;;;;;;0.30;0.20;;;0.40;99.90;;;;;;5067183;28;20197;-86
2021/12/07 04:22:49;;;;;;;0.30;0.10;;;0.30;99.90;;;;;;5061844;28;20240;-86
2021/12/07 04:25:18;;;;;;;0.30;0.10;;;0.30;99.90;;;;;;5067393;28;20443;-88
2021/12/07 04:27:45;;;;;;;0.30;0.10;;;0.30;99.90;;;;;;5069605;28;20225;-87
2021/12/07 04:30:14;;;;;;;0.30;0.20;;;0.30;99.90;;;;;;5064029;28;20478;-87
2021/12/07 04:32:42;;;;;;;0.30;0.20;;;0.30;99.90;;;;;;5069664;28;20857;-86
2021/12/07 04:35:11;;;;;;;0.30;0.10;;;0.30;99.90;;;;;;5063403;28;20630;-87
2021/12/07 04:37:40;;;;;;;0.30;0.10;;;0.30;99.90;;;;;;5061780;28;20197;-87
2021/12/07 04:40:10;;;;;;;0.30;0.20;;;0.20;99.90;;;;;;5070128;28;21465;-85
2021/12/07 04:42:37;;;;;;;0.30;0.20;;;0.10;99.90;;;;;;5070478;28;20196;-86
2021/12/07 04:45:09;;;;;;;0.30;0.10;;;0.00;99.90;;;;;;5067761;28;20216;-88
2021/12/07 04:47:46;;;;;;;0.30;0.10;;;-0.20;99.90;;;;;;5070013;28;20204;-86
2021/12/07 04:57:35;;;;;;;0.30;0.10;;;-0.20;99.90;;;;;;5066560;28;20219;-87
2021/12/07 04:58:54;;;;;;;0.30;0.10;;;-0.60;99.90;;;;;;5085212;28;20221;-86
2021/12/07 05:01:21;;;;;;;0.30;0.10;;;-0.70;99.90;;;;;;5090563;28;20199;-86
2021/12/07 05:03:49;;;;;;;0.30;0.10;;;-0.90;99.90;;;;;;5079163;28;20200;-87
2021/12/07 05:06:18;;;;;;;0.30;0.10;;;-0.90;99.90;;;;;;5061478;28;20204;-87
2021/12/07 05:08:54;;;;;;;0.30;0.10;;;-1.00;99.90;;;;;;5063358;28;20199;-86
2021/12/07 05:11:44;;;;;;;0.30;0.10;;;-1.10;99.90;;;;;;5065067;28;20234;-87
2021/12/07 05:14:17;;;;;;;0.30;0.10;;;-1.10;99.90;;;;;;5053263;28;20213;-86
2021/12/07 05:17:12;;;;;;;0.30;0.10;;;-1.20;99.90;;;;;;5065061;28;20583;-86
2021/12/07 05:39:04;;;;;;;0.30;0.10;;;-1.30;99.90;;;;;;5085618;28;20614;-85
2021/12/07 05:41:31;;;;;;;1.50;1.00;;;-1.30;99.90;;;;;;5077065;28;20231;-84
2021/12/07 05:44:00;;;;;;;0.30;0.10;;;-1.30;99.90;;;;;;5067170;28;20249;-86
2021/12/07 05:46:27;;;;;;;0.30;0.10;;;-1.30;99.90;;;;;;5085781;28;20265;-86
2021/12/07 05:48:54;;;;;;;0.30;0.10;;;-1.30;99.90;;;;;;5077721;28;20199;-84
2021/12/07 05:51:21;;;;;;;0.30;0.10;;;-1.20;99.90;;;;;;5081109;28;20199;-84
2021/12/07 05:53:48;;;;;;;0.30;0.10;;;-1.10;99.90;;;;;;5088099;28;20224;-86
2021/12/07 05:56:14;;;;;;;0.30;0.20;;;-1.10;99.90;;;;;;5101259;28;20589;-85
2021/12/07 05:58:41;;;;;;;0.30;0.10;;;-1.00;99.90;;;;;;5100421;28;20208;-84
2021/12/07 06:01:10;;;;;;;0.30;0.10;;;-0.90;99.90;;;;;;5090794;28;20264;-85
2021/12/07 06:03:37;;;;;;;0.30;0.10;;;-0.90;99.90;;;;;;5084165;28;20191;-85
2021/12/07 06:06:04;;;;;;;0.30;0.10;;;-0.80;99.90;;;;;;5086898;28;20325;-86
2021/12/07 06:08:31;;;;;;;0.30;0.10;;;-0.70;99.90;;;;;;5086478;28;20240;-85
2021/12/07 06:10:58;;;;;;;0.30;0.10;;;-0.60;99.90;;;;;;5085723;28;20228;-86
2021/12/07 06:13:25;;;;;;;0.40;0.40;;;-0.50;99.90;;;;;;5069255;28;20782;-85
2021/12/07 06:15:53;;;;;;;0.30;0.10;;;-0.40;99.90;;;;;;5067308;28;20206;-84
2021/12/07 06:18:21;;;;;;;0.30;0.10;;;-0.30;99.90;;;;;;5086604;28;20645;-87
2021/12/07 06:20:48;;;;;;;0.30;0.20;;;-0.20;99.90;;;;;;5086897;28;20195;-85
2021/12/07 06:23:17;;;;;;;0.30;0.10;;;-0.30;99.90;;;;;;5085899;28;20590;-85
2021/12/07 06:25:45;;;;;;;0.30;0.10;;;-0.20;99.90;;;;;;5075450;28;20251;-85
2021/12/07 06:28:13;;;;;;;1.50;0.60;;;-0.20;99.90;;;;;;5086691;28;20213;-87
2021/12/07 06:30:40;;;;;;;0.30;0.20;;;-0.10;99.90;;;;;;5083740;28;20266;-85
2021/12/07 06:33:07;;;;;;;0.30;0.10;;;-0.20;99.90;;;;;;5075914;28;20195;-85
2021/12/07 06:35:36;;;;;;;0.30;0.10;;;-0.10;99.90;;;;;;5092564;28;20199;-85
2021/12/07 06:38:03;;;;;;;0.30;0.10;;;-0.10;99.90;;;;;;5085932;28;20204;-85
2021/12/07 06:40:30;;;;;;;0.30;0.10;;;-0.10;99.90;;;;;;5072574;28;20204;-85
2021/12/07 06:42:59;;;;;;;0.82;0.50;;;-0.10;99.90;;;;;;5072809;28;20204;-85
2021/12/07 06:45:28;;;;;;;0.70;0.50;;;-0.10;99.90;;;;;;5067905;28;20215;-87
2021/12/07 06:47:55;;;;;;;5.28;0.75;;;0.00;99.90;;;;;;5064017;28;20306;-85
2021/12/07 06:50:22;;;;;;;2.17;2.08;;;0.00;99.90;;;;;;5063836;28;20639;-86
2021/12/07 06:52:52;;;;;;;1.00;1.00;;;0.00;99.90;;;;;;5083268;28;20216;-85
2021/12/07 06:55:19;;;;;;;0.30;0.20;;;0.10;99.90;;;;;;5089626;28;20199;-85
2021/12/07 06:57:46;;;;;;;0.30;0.10;;;0.10;99.90;;;;;;5080866;28;20275;-87
2021/12/07 07:00:14;;;;;;;0.68;0.68;;;0.10;99.90;;;;;;5073282;28;20285;-85
2021/12/07 07:02:41;;;;;;;0.30;0.10;;;0.20;99.90;;;;;;5074015;28;20200;-86
2021/12/07 07:05:10;;;;;;;0.30;0.10;;;0.30;99.90;;;;;;5073728;28;20203;-85
2021/12/07 07:07:37;;;;;;;1.92;0.52;;;0.30;99.90;;;;;;5074139;28;20310;-85
2021/12/07 07:10:07;;;;;;;0.47;0.47;;;0.30;99.90;;;;;;5073707;28;20243;-85
2021/12/07 07:12:34;;;;;;;1.23;1.13;;;0.20;99.90;;;;;;5072998;28;20235;-85
2021/12/07 07:15:00;;;;;;;0.63;0.57;;;0.20;99.90;;;;;;5072577;28;20208;-84
2021/12/07 07:17:28;;;;;;;0.30;0.20;;;0.30;99.90;;;;;;5073886;28;20529;-84
2021/12/07 07:19:54;;;;;;;0.30;0.10;;;0.40;99.90;;;;;;5072440;28;20209;-86
2021/12/07 07:22:21;;;;;;;0.30;0.20;;;0.40;99.90;;;;;;5075210;28;20195;-88
2021/12/07 07:24:49;;;;;;;0.30;0.10;;;0.40;99.90;;;;;;5085003;28;20203;-88
2021/12/07 07:27:19;;;;;;;0.40;0.20;;;0.30;99.90;;;;;;5093821;28;20321;-88
2021/12/07 07:29:46;;;;;;;0.30;0.10;;;0.30;99.90;;;;;;5093770;28;20227;-88
2021/12/07 07:32:13;;;;;;;0.30;0.10;;;0.30;99.90;;;;;;5091896;28;20203;-81
2021/12/07 07:34:40;;;;;;;0.30;0.10;;;0.30;99.90;;;;;;5087722;28;20250;-85
2021/12/07 07:37:07;;;;;;;0.30;0.20;;;0.40;99.90;;;;;;5084466;28;20262;-85
2021/12/07 07:39:34;;;;;;;0.30;0.10;;;0.40;99.90;;;;;;5075448;28;20206;-85
2021/12/07 07:42:01;;;;;;;0.30;0.10;;;0.50;99.90;;;;;;5073852;28;20204;-84
2021/12/07 07:44:30;;;;;;;0.30;0.10;;;0.50;99.90;;;;;;5070871;28;20192;-84
2021/12/07 07:46:57;;;;;;;0.30;0.10;;;0.60;99.90;;;;;;5073471;28;20542;-86
2021/12/07 07:49:24;;;;;;;0.30;0.10;;;0.60;99.90;;;;;;5080223;28;20191;-86
2021/12/07 07:51:51;;;;;;;0.30;0.10;;;0.60;99.90;;;;;;5094628;28;20233;-86
2021/12/07 07:54:18;;;;;;;0.30;0.10;;;0.90;99.90;;;;;;5085316;28;20275;-86
2021/12/07 07:56:45;;;;;;;0.30;0.20;;;0.80;99.90;;;;;;5072536;28;20271;-86
2021/12/07 07:59:12;;;;;;;0.52;0.52;;;0.90;99.90;;;;;;5072072;28;20625;-86
2021/12/07 08:01:41;;;;;;;0.30;0.20;;;0.90;99.90;;;;;;5070950;28;20255;-87
2021/12/07 08:04:08;;;;;;;0.30;0.10;;;0.90;99.90;;;;;;5072158;28;20246;-86
2021/12/07 08:06:35;;;;;;;3.80;2.50;;;1.00;99.90;;;;;;5071545;28;20208;-88
2021/12/07 08:09:03;;;;;;;0.30;0.10;;;1.00;99.90;;;;;;5070657;28;20201;-86
2021/12/07 08:11:30;;;;;;;0.30;0.10;;;1.00;99.90;;;;;;5071014;28;20208;-88
2021/12/07 08:13:57;;;;;;;0.30;0.10;;;1.00;99.90;;;;;;5055878;28;20203;-86
2021/12/07 08:16:24;;;;;;;1.35;0.82;;;1.00;99.90;;;;;;5046599;28;20898;-86
2021/12/07 08:18:54;;;;;;;0.30;0.30;;;1.00;99.90;;;;;;5070983;28;20271;-85
2021/12/07 08:21:21;;;;;;;1.20;0.85;;;1.00;99.90;;;;;;5070994;28;20253;-84
2021/12/07 08:23:49;;;;;;;0.30;0.20;;;0.90;99.90;;;;;;5069376;28;20206;-85
2021/12/07 08:26:18;;;;;;;0.30;0.15;;;0.90;99.90;;;;;;5069621;28;20433;-84
2021/12/07 08:28:45;;;;;;;0.30;0.10;;;0.80;99.90;;;;;;5068239;28;20262;-87
2021/12/07 08:31:12;;;;;;;0.30;0.20;;;0.80;99.90;;;;;;5059512;28;20248;-84
2021/12/07 08:33:39;;;;;;;0.30;0.10;;;0.70;99.90;;;;;;5069731;28;20236;-86
2021/12/07 08:36:08;;;;;;;0.30;0.10;;;0.70;99.90;;;;;;5070325;28;20202;-87
2021/12/07 08:38:35;;;;;;;0.30;0.10;;;0.70;99.90;;;;;;5070426;28;20204;-84
2021/12/07 08:41:02;;;;;;;0.30;0.10;;;0.80;99.90;;;;;;5069808;28;20195;-84
2021/12/07 08:43:31;;;;;;;0.30;0.10;;;0.80;99.90;;;;;;5056527;28;20246;-84
2021/12/07 08:46:00;;;;;;;0.30;0.10;;;0.70;99.90;;;;;;5065870;28;20204;-84
2021/12/07 08:48:28;;;;;;;0.30;0.10;;;0.70;99.90;;;;;;5091184;28;20491;-83
2021/12/07 08:50:56;;;;;;;0.30;0.10;;;0.60;99.90;;;;;;5082404;28;20196;-85
2021/12/07 08:53:26;;;;;;;0.30;0.10;;;0.70;99.90;;;;;;5069322;28;20199;-84
2021/12/07 09:01:34;;;;;;;0.30;0.10;;;0.70;99.90;;;;;;5045203;28;20196;-86
2021/12/07 09:04:03;;;;;;;0.30;0.10;;;0.80;99.90;;;;;;5069641;28;20203;-84
2021/12/07 09:06:31;;;;;;;0.30;0.10;;;0.70;99.90;;;;;;5069703;28;20204;-86
2021/12/07 09:08:59;;;;;;;0.30;0.30;;;0.70;99.90;;;;;;5070512;28;20228;-84
2021/12/07 09:11:26;;;;;;;0.30;0.20;;;0.80;99.90;;;;;;5070569;28;20253;-83
2021/12/07 09:13:54;;;;;;;0.30;0.10;;;0.80;99.90;;;;;;5069005;28;20232;-84
2021/12/07 09:16:22;;;;;;;0.30;0.10;;;0.70;99.90;;;;;;5070624;28;20447;-84
2021/12/07 09:18:50;;;;;;;0.30;0.10;;;0.80;99.90;;;;;;5068974;28;20639;-85
2021/12/07 09:21:19;;;;;;;0.30;0.10;;;0.90;99.90;;;;;;5069693;28;20200;-85
2021/12/07 09:23:47;;;;;;;0.60;0.60;;;0.90;99.90;;;;;;5068691;28;20704;-83
2021/12/07 09:26:16;;;;;;;0.30;0.10;;;0.90;99.90;;;;;;5070477;28;20278;-85
2021/12/07 09:28:44;;;;;;;0.30;0.10;;;0.80;99.90;;;;;;5068472;28;20227;-85
2021/12/07 09:31:12;;;;;;;0.30;0.10;;;0.90;99.90;;;;;;5060079;28;20707;-85
2021/12/07 09:33:41;;;;;;;0.30;0.10;;;0.90;99.90;;;;;;5063221;28;20201;-86
2021/12/07 09:36:09;;;;;;;0.30;0.10;;;1.00;99.90;;;;;;5058310;28;20213;-84
2021/12/07 09:38:37;;;;;;;0.30;0.10;;;1.00;99.90;;;;;;5053704;28;20848;-87
2021/12/07 09:41:06;;;;;;;0.30;0.10;;;1.10;99.90;;;;;;5058407;28;20207;-83
2021/12/07 09:43:34;;;;;;;0.30;0.10;;;1.20;99.90;;;;;;5062995;28;20486;-85
2021/12/07 09:46:01;;;;;;;2.17;0.75;;;1.10;99.90;;;;;;5071772;28;20517;-86
2021/12/07 09:48:28;;;;;;;0.30;0.10;;;1.10;99.90;;;;;;5060524;28;20226;-86
2021/12/07 09:50:56;;;;;;;0.30;0.10;;;1.00;99.90;;;;;;5061894;28;20455;-86
2021/12/07 09:53:24;;;;;;;0.30;0.10;;;1.10;99.90;;;;;;5057032;28;20198;-87
2021/12/07 09:55:52;;;;;;;0.30;0.20;;;1.10;99.90;;;;;;5048554;28;20263;-89
2021/12/07 09:58:20;;;;;;;0.30;0.10;;;1.10;99.90;;;;;;5049445;28;20501;-87
2021/12/07 10:00:49;;;;;;;0.30;0.10;;;1.20;99.90;;;;;;5058901;28;20644;-85
2021/12/07 10:03:18;;;;;;;0.30;0.10;;;1.30;99.90;;;;;;5069221;28;20435;-88
2021/12/07 10:05:45;;;;;;;0.30;0.10;;;1.20;99.90;;;;;;5068207;28;20622;-88
2021/12/07 10:08:13;;;;;;;0.30;0.10;;;1.20;99.90;;;;;;5069062;28;20270;-89
2021/12/07 10:10:42;;;;;;;0.30;0.10;;;1.10;99.90;;;;;;5068386;28;20555;-86
2021/12/07 10:13:10;;;;;;;0.30;0.10;;;1.10;99.90;;;;;;5069198;28;20240;-88
2021/12/07 10:15:38;;;;;;;0.30;0.20;;;1.20;99.90;;;;;;5072136;28;20239;-86
2021/12/07 10:18:11;;;;;;;0.30;0.10;;;1.20;99.90;;;;;;5071840;28;20204;-86
2021/12/07 10:20:42;;;;;;;0.30;0.10;;;1.10;99.90;;;;;;5072044;28;21123;-86
2021/12/07 10:23:30;;;;;;;0.30;0.10;;;1.20;99.90;;;;;;5071923;28;20231;-86
2021/12/07 10:26:01;;;;;;;0.30;0.10;;;1.30;99.90;;;;;;5072187;28;20606;-87
2021/12/07 10:28:30;;;;;;;0.30;0.10;;;1.30;99.90;;;;;;5071107;28;20236;-86
2021/12/07 10:31:02;;;;;;;0.30;0.10;;;1.30;99.90;;;;;;5071232;28;20282;-85
2021/12/07 10:33:32;;;;;;;0.30;0.10;;;1.20;99.90;;;;;;5071070;28;20258;-86
2021/12/07 10:36:11;;;;;;;0.30;0.10;;;1.30;99.90;;;;;;5056842;28;20524;-85
2021/12/07 10:38:38;;;;;;;0.30;0.10;;;1.40;99.90;;;;;;5072821;28;20241;-85
2021/12/07 10:41:07;;;;;;;0.30;0.20;;;1.50;99.90;;;;;;5088207;28;20460;-87
2021/12/07 10:43:53;;;;;;;0.30;0.10;;;1.60;99.90;;;;;;5090072;28;20195;-85
2021/12/07 10:46:29;;;;;;;0.30;0.10;;;1.70;99.90;;;;;;5079041;28;20204;-85
2021/12/07 10:49:15;;;;;;;0.30;0.10;;;1.80;99.90;;;;;;5071829;28;20654;-86
2021/12/07 10:51:54;;;;;;;0.30;0.10;;;1.80;99.90;;;;;;5071838;28;20439;-85
2021/12/07 10:54:23;;;;;;;0.30;0.10;;;1.80;99.90;;;;;;5073288;28;20995;-85
2021/12/07 10:56:50;;;;;;;0.30;0.10;;;1.80;99.90;;;;;;5073317;28;20447;-85
2021/12/07 10:59:18;;;;;;;0.30;0.10;;;1.80;99.90;;;;;;5073094;28;20548;-86
2021/12/07 11:01:48;;;;;;;0.30;0.10;;;1.80;99.90;;;;;;5072036;28;20463;-88
2021/12/07 11:04:25;;;;;;;0.30;0.13;;;1.90;99.90;;;;;;5072724;28;20452;-88
2021/12/07 11:07:10;;;;;;;0.30;0.10;;;1.90;99.90;;;;;;5072002;28;20463;-86
2021/12/07 11:09:51;;;;;;;0.30;0.10;;;1.80;99.90;;;;;;5072555;28;20482;-86
2021/12/07 11:12:21;;;;;;;0.30;0.10;;;1.80;99.90;;;;;;5064804;28;20480;-88
2021/12/07 11:14:52;;;;;;;0.30;0.10;;;1.80;99.90;;;;;;5071256;28;20514;-89
2021/12/07 11:17:24;;;;;;;0.30;0.17;;;1.80;99.90;;;;;;5072720;28;20474;-88
2021/12/07 11:19:53;;;;;;;0.30;0.10;;;1.80;99.90;;;;;;5071546;28;20523;-86
2021/12/07 11:22:25;;;;;;;0.30;0.10;;;1.80;99.90;;;;;;5072177;28;20254;-87
2021/12/07 11:24:54;;;;;;;0.30;0.10;;;1.80;99.90;;;;;;5071871;28;20261;-88
2021/12/07 11:30:11;;;;;;;0.30;0.10;;;1.90;99.90;;;;;;5071508;28;20435;-87
2021/12/07 11:32:41;;;;;;;0.30;0.10;;;2.00;99.90;;;;;;5052278;28;20451;-88
2021/12/07 11:35:18;;;;;;;0.30;0.10;;;2.10;99.90;;;;;;5053172;28;20443;-88
2021/12/07 11:37:47;;;;;;;0.30;0.10;;;2.10;99.90;;;;;;5062942;28;20203;-87
2021/12/07 11:40:18;;;;;;;2.10;0.63;;;2.10;99.90;;;;;;5088580;28;20793;-87
2021/12/07 11:42:46;;;;;;;0.30;0.10;;;2.20;99.90;;;;;;5085564;28;21112;-85
2021/12/07 11:45:16;;;;;;;0.30;0.10;;;2.20;99.90;;;;;;5076429;28;20478;-88
2021/12/07 11:47:46;;;;;;;0.30;0.10;;;2.20;99.90;;;;;;5071670;28;20479;-87
2021/12/07 11:50:22;;;;;;;0.30;0.10;;;2.20;99.90;;;;;;5070792;28;20892;-87
2021/12/07 11:52:53;;;;;;;0.30;0.20;;;2.20;99.90;;;;;;5065752;28;20950;-88
2021/12/07 11:55:20;;;;;;;0.30;0.10;;;2.30;99.90;;;;;;5069266;28;20448;-89
2021/12/07 11:57:48;;;;;;;0.30;0.10;;;2.20;99.90;;;;;;5073797;28;20466;-88
2021/12/07 12:00:20;;;;;;;0.37;0.20;;;2.30;99.90;;;;;;5073467;28;20921;-87
2021/12/07 12:02:47;;;;;;;0.30;0.10;;;2.40;99.90;;;;;;5073712;28;20533;-87
2021/12/07 12:05:14;;;;;;;0.30;0.10;;;2.40;99.90;;;;;;5085411;28;20462;-88
2021/12/07 12:07:45;;;;;;;2.77;1.80;;;2.40;99.90;;;;;;5093263;28;20432;-87
2021/12/07 12:10:14;;;;;;;0.30;0.10;;;2.30;99.90;;;;;;5091591;28;20497;-87
2021/12/07 12:12:55;;;;;;;0.30;0.10;;;2.30;99.90;;;;;;5086679;28;20918;-87
2021/12/07 12:15:37;;;;;;;0.30;0.10;;;2.30;99.90;;;;;;5072135;28;20508;-86
2021/12/07 12:18:12;;;;;;;0.30;0.20;;;2.20;99.90;;;;;;5072401;28;20266;-87
2021/12/07 12:21:00;;;;;;;0.30;0.10;;;2.20;99.90;;;;;;5069637;28;20976;-87
2021/12/07 12:23:39;;;;;;;0.30;0.10;;;2.10;99.90;;;;;;5072076;28;20443;-86
2021/12/07 12:26:09;;;;;;;0.30;0.10;;;2.20;99.90;;;;;;5069517;28;20488;-87
2021/12/07 12:28:38;;;;;;;6.37;1.90;;;2.20;99.90;;;;;;5070682;28;20479;-87
2021/12/07 12:31:07;;;;;;;0.30;0.20;;;2.20;99.90;;;;;;5072008;28;20921;-88
2021/12/07 12:33:49;;;;;;;0.30;0.10;;;2.20;99.90;;;;;;5076719;28;20209;-86
2021/12/07 12:36:17;;;;;;;0.30;0.10;;;2.10;99.90;;;;;;5091292;28;20193;-87
2021/12/07 12:38:49;;;;;;;0.30;0.10;;;2.10;99.90;;;;;;5087064;28;20447;-89
2021/12/07 12:41:17;;;;;;;0.30;0.10;;;2.10;99.90;;;;;;5065599;28;20442;-88
2021/12/07 12:43:49;;;;;;;0.30;0.10;;;2.10;99.90;;;;;;5063760;28;20810;-87
2021/12/07 12:46:18;;;;;;;0.30;0.20;;;2.00;99.90;;;;;;5070740;28;20457;-88
2021/12/07 12:48:48;;;;;;;0.50;0.50;;;2.00;99.90;;;;;;5065956;28;20509;-88
2021/12/07 12:51:16;;;;;;;0.30;0.10;;;2.00;99.90;;;;;;5065341;28;20471;-89
2021/12/07 12:53:46;;;;;;;0.30;0.13;;;2.00;99.90;;;;;;5064483;28;20446;-88
2021/12/07 12:56:16;;;;;;;5.80;0.87;;;2.00;99.90;;;;;;5059284;28;20517;-87
2021/12/07 12:58:45;;;;;;;0.30;0.10;;;2.00;99.90;;;;;;5066519;28;20437;-88
2021/12/07 13:01:19;;;;;;;0.30;0.20;;;1.90;99.90;;;;;;5062203;28;20478;-86
2021/12/07 13:03:53;;;;;;;0.30;0.10;;;2.00;99.90;;;;;;5069405;28;20517;-84
2021/12/07 13:06:23;;;;;;;0.30;0.10;;;2.00;99.90;;;;;;5069350;28;20468;-84
2021/12/07 13:09:00;;;;;;;0.30;0.20;;;2.00;99.90;;;;;;5068644;28;20536;-85
2021/12/07 13:11:37;;;;;;;0.30;0.10;;;2.10;99.90;;;;;;5060959;28;20436;-86
2021/12/07 13:14:05;;;;;;;0.30;0.10;;;2.10;99.90;;;;;;5067403;28;20462;-85
2021/12/07 13:16:33;;;;;;;0.30;0.10;;;2.10;99.90;;;;;;5059342;28;20497;-85
2021/12/07 13:19:03;;;;;;;0.30;0.10;;;2.10;99.90;;;;;;5066012;28;20457;-85
2021/12/07 13:21:32;;;;;;;0.30;0.10;;;2.10;99.90;;;;;;5049978;28;20435;-85
2021/12/07 13:24:03;;;;;;;0.30;0.10;;;2.10;99.90;;;;;;5066318;28;20521;-85
2021/12/07 13:26:35;;;;;;;0.65;0.65;;;2.10;99.90;;;;;;5064328;28;20793;-84
2021/12/07 13:29:05;;;;;;;0.30;0.10;;;2.20;99.90;;;;;;5067590;28;20221;-84
2021/12/07 13:31:39;;;;;;;0.30;0.10;;;2.20;99.90;;;;;;5078171;28;20374;-86
2021/12/07 13:34:06;;;;;;;0.30;0.20;;;2.10;99.90;;;;;;5084416;28;20257;-84
2021/12/07 13:36:48;;;;;;;0.30;0.10;;;2.10;99.90;;;;;;5079734;28;20446;-86
2021/12/07 13:39:36;;;;;;;0.30;0.10;;;2.20;99.90;;;;;;5066984;28;20232;-85
2021/12/07 13:42:07;;;;;;;0.40;0.30;;;2.10;99.90;;;;;;5067316;28;20266;-85
2021/12/07 13:44:37;;;;;;;0.30;0.10;;;2.10;99.90;;;;;;5055805;28;20461;-86
2021/12/07 13:47:07;;;;;;;0.30;0.10;;;2.10;99.90;;;;;;5050261;28;20448;-86
2021/12/07 13:49:35;;;;;;;0.30;0.10;;;2.10;99.90;;;;;;5052712;28;20475;-85
2021/12/07 13:52:10;;;;;;;0.30;0.10;;;2.10;99.90;;;;;;5066030;28;20455;-86
2021/12/07 13:54:44;;;;;;;0.30;0.10;;;2.20;99.90;;;;;;5074227;28;20964;-86
2021/12/07 13:57:15;;;;;;;3.10;1.83;;;2.20;99.90;;;;;;5073825;28;20257;-87
2021/12/07 13:59:42;;;;;;;0.30;0.10;;;2.20;99.90;;;;;;5061288;28;20474;-85
2021/12/07 14:02:09;;;;;;;0.30;0.10;;;2.20;99.90;;;;;;5070942;28;20936;-86
2021/12/07 14:04:36;;;;;;;0.30;0.20;;;2.20;99.90;;;;;;5062329;28;20513;-85
2021/12/07 14:07:03;;;;;;;0.77;0.30;;;2.20;99.90;;;;;;5072467;28;20984;-88
2021/12/07 14:09:30;;;;;;;0.30;0.10;;;2.20;99.90;;;;;;5069006;28;20492;-86
2021/12/07 14:12:01;;;;;;;0.30;0.10;;;2.20;99.90;;;;;;5072638;28;20451;-85
2021/12/07 14:14:29;;;;;;;0.30;0.10;;;2.20;99.90;;;;;;5071860;28;20461;-86
2021/12/07 14:16:58;;;;;;;0.30;0.10;;;2.20;99.90;;;;;;5058565;28;20475;-86
2021/12/07 14:19:25;;;;;;;0.30;0.10;;;2.20;99.90;;;;;;5054119;28;20494;-88
2021/12/07 14:21:53;;;;;;;0.30;0.10;;;2.20;99.90;;;;;;5065372;28;20576;-86
2021/12/07 14:24:21;;;;;;;0.30;0.10;;;2.20;99.90;;;;;;5079672;28;20404;-86
2021/12/07 14:26:50;;;;;;;0.40;0.40;;;2.20;99.90;;;;;;5089070;28;20487;-86